Time;durP1;ratioP1;P1;durP2;ratioP2;P2;SDS_P1;SDS_P2;PMS_P1;PMS_P2;Temp;Humidity;BMP_temperature;BMP_pressure;BME280_temperature;BME280_humidity;BME280_pressure;Samples;Min_cycle;Max_cycle;Signal;HPM_P1;HPM_P2
2021/09/19 00:00:44;;;;;;;23.50;17.43;;;13.60;99.90;;;;;;5069873;28;20390;-53
2021/09/19 00:03:10;;;;;;;26.17;18.00;;;13.60;99.90;;;;;;5061537;28;20503;-53
2021/09/19 00:05:35;;;;;;;24.38;17.13;;;13.50;99.90;;;;;;5049651;28;20418;-53
2021/09/19 00:08:01;;;;;;;27.00;17.90;;;13.50;99.90;;;;;;5056294;28;20403;-53
2021/09/19 00:10:27;;;;;;;23.95;17.23;;;13.40;99.90;;;;;;5059504;28;20391;-53
2021/09/19 00:12:53;;;;;;;25.63;17.90;;;13.50;99.90;;;;;;5064211;28;20380;-53
2021/09/19 00:15:20;;;;;;;24.60;17.00;;;13.50;99.90;;;;;;5068093;28;20826;-53
2021/09/19 00:17:47;;;;;;;25.33;17.45;;;13.60;99.90;;;;;;5063725;28;20415;-53
2021/09/19 00:20:14;;;;;;;25.23;17.40;;;13.50;99.90;;;;;;5059302;28;20742;-54
2021/09/19 00:22:40;;;;;;;25.20;17.70;;;13.50;99.90;;;;;;5049915;28;20464;-53
2021/09/19 00:25:09;;;;;;;29.50;19.95;;;13.50;99.90;;;;;;5050875;28;20481;-54
2021/09/19 00:27:35;;;;;;;29.77;19.60;;;13.50;99.90;;;;;;5059115;28;20386;-53
2021/09/19 00:30:05;;;;;;;25.83;19.40;;;13.40;99.90;;;;;;5068571;28;20467;-54
2021/09/19 00:32:31;;;;;;;31.08;21.30;;;13.30;99.90;;;;;;5061724;28;20871;-53
2021/09/19 00:34:56;;;;;;;34.72;22.05;;;13.30;99.90;;;;;;5062123;28;21858;-54
2021/09/19 00:37:22;;;;;;;34.70;21.37;;;13.20;99.90;;;;;;5060872;28;20503;-53
2021/09/19 00:39:48;;;;;;;38.67;22.40;;;13.30;99.90;;;;;;5065166;28;20460;-54
2021/09/19 00:42:13;;;;;;;34.80;21.50;;;13.30;99.90;;;;;;5060824;28;20427;-54
2021/09/19 00:44:39;;;;;;;34.90;21.43;;;13.30;99.90;;;;;;5054875;28;20725;-53
2021/09/19 00:47:05;;;;;;;41.35;21.45;;;13.30;99.90;;;;;;5069561;28;20387;-53
2021/09/19 00:49:31;;;;;;;33.67;19.67;;;13.30;99.90;;;;;;5069061;28;20464;-53
2021/09/19 00:51:57;;;;;;;30.40;19.80;;;13.30;99.90;;;;;;5069506;28;20376;-53
2021/09/19 00:54:23;;;;;;;30.48;19.52;;;13.10;99.90;;;;;;5068404;28;20470;-53
2021/09/19 00:56:55;;;;;;;28.13;19.08;;;13.00;99.90;;;;;;5069555;28;20423;-53
2021/09/19 00:59:22;;;;;;;28.15;18.90;;;13.00;99.90;;;;;;5068723;28;20375;-53
2021/09/19 01:01:52;;;;;;;31.98;19.60;;;13.00;99.90;;;;;;5068097;28;20417;-53
2021/09/19 01:04:19;;;;;;;28.17;18.60;;;13.00;99.90;;;;;;5067366;28;20397;-53
2021/09/19 01:06:45;;;;;;;26.90;18.70;;;12.90;99.90;;;;;;5069286;28;20418;-53
2021/09/19 01:09:11;;;;;;;28.33;19.13;;;12.80;99.90;;;;;;5069152;28;20849;-53
2021/09/19 01:11:37;;;;;;;27.30;17.50;;;12.80;99.90;;;;;;5068471;28;20751;-52
2021/09/19 01:14:03;;;;;;;30.42;18.15;;;12.80;99.90;;;;;;5069488;28;20813;-54
2021/09/19 01:16:28;;;;;;;27.13;17.70;;;12.80;99.90;;;;;;5068450;28;20476;-53
2021/09/19 01:18:55;;;;;;;25.92;17.77;;;12.80;99.90;;;;;;5068916;28;20383;-53
2021/09/19 01:21:20;;;;;;;27.15;18.00;;;12.70;99.90;;;;;;5068257;28;20391;-53
2021/09/19 01:24:02;;;;;;;26.10;17.93;;;12.70;99.90;;;;;;5069322;28;20379;-53
2021/09/19 01:26:29;;;;;;;28.20;17.65;;;12.60;99.90;;;;;;5072567;28;20388;-53
2021/09/19 01:28:56;;;;;;;26.92;18.00;;;12.50;99.90;;;;;;5072848;28;20865;-53
2021/09/19 01:31:22;;;;;;;25.70;16.08;;;12.40;99.90;;;;;;5072793;28;20379;-52
2021/09/19 01:33:48;;;;;;;25.73;16.63;;;12.40;99.90;;;;;;5073811;28;20376;-52
2021/09/19 01:36:14;;;;;;;23.77;16.17;;;12.40;99.90;;;;;;5073030;28;20458;-53
2021/09/19 01:38:41;;;;;;;24.55;15.07;;;12.40;99.90;;;;;;5073271;28;20429;-52
2021/09/19 01:41:06;;;;;;;22.27;15.25;;;12.50;99.90;;;;;;5073201;28;20371;-52
2021/09/19 01:43:32;;;;;;;23.70;15.38;;;12.40;99.90;;;;;;5072517;28;20465;-52
2021/09/19 01:46:05;;;;;;;24.60;15.98;;;12.40;99.90;;;;;;5073268;28;20389;-52
2021/09/19 01:48:36;;;;;;;22.85;14.60;;;12.40;99.90;;;;;;5072603;28;20448;-52
2021/09/19 01:51:04;;;;;;;23.63;15.40;;;12.40;99.90;;;;;;5073364;28;20486;-52
2021/09/19 01:53:29;;;;;;;24.67;16.15;;;12.40;99.90;;;;;;5072146;28;20382;-52
2021/09/19 01:55:55;;;;;;;25.20;15.88;;;12.40;99.90;;;;;;5072606;28;20411;-52
2021/09/19 01:58:22;;;;;;;25.55;16.80;;;12.30;99.90;;;;;;5072072;28;20450;-52
2021/09/19 02:00:48;;;;;;;26.98;16.80;;;12.20;99.90;;;;;;5072820;28;20378;-52
2021/09/19 02:03:14;;;;;;;25.27;16.98;;;12.20;99.90;;;;;;5072929;28;20466;-55
2021/09/19 02:05:40;;;;;;;23.37;16.00;;;12.00;99.90;;;;;;5072640;28;20392;-52
2021/09/19 02:08:06;;;;;;;26.13;17.10;;;11.90;99.90;;;;;;5072763;28;20422;-52
2021/09/19 02:10:31;;;;;;;25.50;16.38;;;11.90;99.90;;;;;;5072053;28;20756;-52
2021/09/19 02:12:57;;;;;;;24.57;15.47;;;11.80;99.90;;;;;;5072826;28;20785;-52
2021/09/19 02:15:23;;;;;;;22.75;16.05;;;11.90;99.90;;;;;;5072072;28;20470;-52
2021/09/19 02:17:48;;;;;;;26.15;17.15;;;12.00;99.90;;;;;;5072351;28;20830;-52
2021/09/19 02:20:15;;;;;;;24.00;15.90;;;11.90;99.90;;;;;;5071870;28;20396;-52
2021/09/19 02:22:43;;;;;;;23.42;15.27;;;11.90;99.90;;;;;;5072031;28;20413;-54
2021/09/19 02:25:09;;;;;;;25.17;16.10;;;11.90;99.90;;;;;;5072348;28;20395;-53
2021/09/19 02:27:36;;;;;;;25.40;16.40;;;12.00;99.90;;;;;;5071730;28;21100;-53
2021/09/19 02:30:15;;;;;;;25.60;15.70;;;12.10;99.90;;;;;;5071823;28;20379;-54
2021/09/19 02:32:40;;;;;;;25.75;16.67;;;12.10;99.90;;;;;;5071723;28;20387;-53
2021/09/19 02:35:08;;;;;;;24.45;15.95;;;12.00;99.90;;;;;;5072133;28;20384;-53
2021/09/19 02:37:38;;;;;;;24.90;16.60;;;12.10;99.90;;;;;;5068903;28;20725;-53
2021/09/19 02:40:06;;;;;;;24.70;16.20;;;12.10;99.90;;;;;;5072070;28;20380;-53
2021/09/19 02:42:32;;;;;;;23.23;15.40;;;12.00;99.90;;;;;;5070988;28;20403;-54
2021/09/19 02:44:57;;;;;;;22.37;15.40;;;12.00;99.90;;;;;;5072005;28;20488;-53
2021/09/19 02:47:23;;;;;;;23.52;15.68;;;12.10;99.90;;;;;;5071397;28;20394;-54
2021/09/19 02:49:49;;;;;;;21.37;14.20;;;12.00;99.90;;;;;;5071746;28;20395;-53
2021/09/19 02:52:14;;;;;;;21.73;14.70;;;11.90;99.90;;;;;;5070822;28;20880;-53
2021/09/19 02:54:40;;;;;;;22.15;14.48;;;12.60;99.90;;;;;;5071043;28;20769;-53
2021/09/19 02:57:06;;;;;;;22.02;14.15;;;12.80;99.90;;;;;;5071813;28;20450;-53
2021/09/19 02:59:31;;;;;;;22.90;15.67;;;11.80;99.90;;;;;;5070632;28;20429;-53
2021/09/19 03:01:57;;;;;;;23.83;15.17;;;11.70;99.90;;;;;;5071236;28;20395;-53
2021/09/19 03:04:23;;;;;;;22.95;14.80;;;11.60;99.90;;;;;;5070808;28;20376;-53
2021/09/19 03:06:48;;;;;;;23.07;15.00;;;11.60;99.90;;;;;;5070199;28;20399;-54
2021/09/19 03:09:14;;;;;;;21.63;14.15;;;11.70;99.90;;;;;;5071672;28;20375;-54
2021/09/19 03:11:39;;;;;;;22.03;14.60;;;11.70;99.90;;;;;;5070464;28;20509;-53
2021/09/19 03:14:05;;;;;;;23.30;15.00;;;11.80;99.90;;;;;;5071542;28;20367;-54
2021/09/19 03:16:31;;;;;;;20.75;13.60;;;11.70;99.90;;;;;;5070561;28;20407;-54
2021/09/19 03:18:57;;;;;;;20.80;14.13;;;11.70;99.90;;;;;;5071366;28;20722;-53
2021/09/19 03:21:22;;;;;;;21.38;14.20;;;11.70;99.90;;;;;;5070507;28;20861;-54
2021/09/19 03:23:49;;;;;;;22.80;14.53;;;11.70;99.90;;;;;;5071564;28;20384;-53
2021/09/19 03:26:14;;;;;;;23.80;15.13;;;11.70;99.90;;;;;;5069962;28;20442;-54
2021/09/19 03:28:40;;;;;;;23.10;14.10;;;11.60;99.90;;;;;;5070325;28;20866;-53
2021/09/19 03:31:06;;;;;;;21.83;14.20;;;11.60;99.90;;;;;;5070883;28;20475;-53
2021/09/19 03:33:31;;;;;;;21.40;14.70;;;11.70;99.90;;;;;;5070097;28;20429;-53
2021/09/19 03:35:57;;;;;;;22.30;14.82;;;11.60;99.90;;;;;;5071063;28;20471;-53
2021/09/19 03:38:23;;;;;;;23.10;14.73;;;11.50;99.90;;;;;;5070283;28;20903;-54
2021/09/19 03:40:48;;;;;;;24.52;13.75;;;11.40;99.90;;;;;;5070502;28;20937;-53
2021/09/19 03:43:14;;;;;;;22.07;13.80;;;11.50;99.90;;;;;;5070872;28;20800;-53
2021/09/19 03:45:39;;;;;;;20.85;12.95;;;11.50;99.90;;;;;;5069401;28;20467;-53
2021/09/19 03:48:08;;;;;;;20.33;13.35;;;11.60;99.90;;;;;;5070876;28;20880;-53
2021/09/19 03:50:34;;;;;;;19.97;13.23;;;11.60;99.90;;;;;;5069984;28;20378;-53
2021/09/19 03:53:00;;;;;;;21.30;12.43;;;11.50;99.90;;;;;;5070702;28;20376;-53
2021/09/19 03:55:26;;;;;;;17.92;12.45;;;11.60;99.90;;;;;;5069425;28;20787;-54
2021/09/19 03:57:53;;;;;;;20.92;12.05;;;11.60;99.90;;;;;;5070540;28;20545;-54
2021/09/19 04:00:18;;;;;;;20.13;13.00;;;11.60;99.90;;;;;;5070341;28;20380;-54
2021/09/19 04:02:44;;;;;;;19.20;12.77;;;11.60;99.90;;;;;;5069877;28;20413;-53
2021/09/19 04:05:11;;;;;;;23.30;12.60;;;11.50;99.90;;;;;;5070347;28;20706;-54
2021/09/19 04:07:38;;;;;;;24.10;13.30;;;11.40;99.90;;;;;;5069771;28;20402;-54
2021/09/19 04:10:06;;;;;;;20.38;13.10;;;11.40;99.90;;;;;;5070459;28;20410;-54
2021/09/19 04:12:32;;;;;;;20.50;12.85;;;11.30;99.90;;;;;;5069653;28;20475;-53
2021/09/19 04:14:58;;;;;;;19.27;12.20;;;11.30;99.90;;;;;;5069359;28;21008;-53
2021/09/19 04:17:24;;;;;;;18.20;11.50;;;11.30;99.90;;;;;;5069146;28;20416;-53
2021/09/19 04:19:50;;;;;;;20.05;12.65;;;11.20;99.90;;;;;;5068914;28;20441;-53
2021/09/19 04:22:15;;;;;;;18.53;12.47;;;11.20;99.90;;;;;;5070349;28;20380;-53
2021/09/19 04:24:41;;;;;;;17.37;12.03;;;11.10;99.90;;;;;;5069072;28;21065;-54
2021/09/19 04:27:07;;;;;;;20.85;11.73;;;11.00;99.90;;;;;;5064874;28;20461;-53
2021/09/19 04:29:34;;;;;;;19.15;11.98;;;11.00;99.90;;;;;;5056799;28;20386;-53
2021/09/19 04:32:01;;;;;;;18.60;12.10;;;11.00;99.90;;;;;;5062222;28;20439;-53
2021/09/19 04:34:27;;;;;;;21.70;12.40;;;11.00;99.90;;;;;;5049568;28;20374;-53
2021/09/19 04:36:52;;;;;;;19.17;12.20;;;11.00;99.90;;;;;;5049970;28;20458;-53
2021/09/19 04:39:18;;;;;;;18.03;11.93;;;11.00;99.90;;;;;;5050192;28;20409;-54
2021/09/19 04:41:44;;;;;;;16.90;11.18;;;11.10;99.90;;;;;;5049293;28;20417;-53
2021/09/19 04:44:10;;;;;;;19.30;11.90;;;11.10;99.90;;;;;;5050089;28;20460;-53
2021/09/19 04:46:36;;;;;;;20.45;12.32;;;11.10;99.90;;;;;;5048944;28;20412;-53
2021/09/19 04:49:01;;;;;;;18.70;11.70;;;11.20;99.90;;;;;;5049694;28;20389;-54
2021/09/19 04:51:27;;;;;;;17.20;11.18;;;11.20;99.90;;;;;;5049142;28;20378;-54
2021/09/19 04:53:53;;;;;;;20.92;11.50;;;11.20;99.90;;;;;;5049702;28;20382;-53
2021/09/19 04:56:19;;;;;;;20.33;12.20;;;12.70;99.90;;;;;;5049624;28;20763;-54
2021/09/19 04:58:44;;;;;;;18.85;12.20;;;11.10;99.90;;;;;;5048989;28;20859;-53
2021/09/19 05:01:10;;;;;;;19.50;11.57;;;11.00;99.90;;;;;;5049026;28;20397;-54
2021/09/19 05:03:36;;;;;;;18.60;11.40;;;11.00;99.90;;;;;;5049068;28;20370;-53
2021/09/19 05:06:01;;;;;;;18.20;11.50;;;11.00;99.90;;;;;;5049730;28;20377;-53
2021/09/19 05:08:27;;;;;;;17.25;12.02;;;11.00;99.90;;;;;;5048602;28;20404;-53
2021/09/19 05:10:53;;;;;;;18.70;12.52;;;11.00;99.90;;;;;;5049833;28;20510;-53
2021/09/19 05:13:19;;;;;;;18.73;11.90;;;11.10;99.90;;;;;;5049243;28;20446;-53
2021/09/19 05:15:44;;;;;;;17.23;11.43;;;11.00;99.90;;;;;;5049158;28;20957;-53
2021/09/19 05:18:10;;;;;;;18.05;12.43;;;11.00;99.90;;;;;;5049540;28;20564;-53
2021/09/19 05:20:36;;;;;;;18.30;11.63;;;11.10;99.90;;;;;;5048597;28;20389;-53
2021/09/19 05:23:01;;;;;;;22.73;11.45;;;11.00;99.90;;;;;;5049527;28;21011;-53
2021/09/19 05:25:28;;;;;;;20.27;11.60;;;11.00;99.90;;;;;;5048989;28;20400;-53
2021/09/19 05:27:53;;;;;;;16.98;10.93;;;11.00;99.90;;;;;;5049523;28;20939;-53
2021/09/19 05:30:19;;;;;;;17.73;11.80;;;10.90;99.90;;;;;;5049348;28;20456;-53
2021/09/19 05:32:45;;;;;;;18.60;11.73;;;11.00;99.90;;;;;;5048995;28;20377;-53
2021/09/19 05:35:11;;;;;;;19.58;12.18;;;10.90;99.90;;;;;;5049417;28;20727;-53
2021/09/19 05:37:37;;;;;;;20.15;12.80;;;10.90;99.90;;;;;;5048361;28;20433;-53
2021/09/19 05:40:04;;;;;;;20.42;11.80;;;10.90;99.90;;;;;;5052667;28;20384;-53
2021/09/19 05:42:30;;;;;;;16.73;11.30;;;10.90;99.90;;;;;;5055284;28;20378;-53
2021/09/19 05:44:56;;;;;;;16.60;10.47;;;11.10;99.90;;;;;;5064672;28;20372;-53
2021/09/19 05:47:21;;;;;;;15.43;10.30;;;11.20;99.90;;;;;;5048699;28;20393;-54
2021/09/19 05:49:47;;;;;;;16.77;10.70;;;11.30;99.90;;;;;;5057682;28;20445;-53
2021/09/19 05:52:13;;;;;;;16.40;10.45;;;11.50;99.90;;;;;;5068543;28;20736;-53
2021/09/19 05:54:39;;;;;;;17.50;10.60;;;11.70;99.90;;;;;;5066141;28;20833;-53
2021/09/19 05:57:04;;;;;;;16.25;9.95;;;11.90;99.90;;;;;;5068377;28;20407;-53
2021/09/19 05:59:30;;;;;;;14.20;9.20;;;12.10;99.90;;;;;;5067525;28;20391;-54
2021/09/19 06:01:55;;;;;;;17.77;10.00;;;12.20;99.90;;;;;;5068644;28;20686;-53
2021/09/19 06:04:23;;;;;;;14.20;9.35;;;12.40;99.90;;;;;;5068158;28;20581;-54
2021/09/19 06:06:48;;;;;;;12.57;8.20;;;12.60;99.90;;;;;;5068234;28;20398;-54
2021/09/19 06:09:14;;;;;;;13.68;7.72;;;13.30;99.90;;;;;;5068692;28;20384;-54
2021/09/19 06:11:41;;;;;;;11.57;7.60;;;14.50;99.90;;;;;;5071300;28;21103;-54
2021/09/19 06:14:07;;;;;;;13.68;7.75;;;15.60;99.90;;;;;;5072650;28;20459;-54
2021/09/19 06:16:32;;;;;;;12.50;7.80;;;16.20;99.90;;;;;;5071709;28;20522;-54
2021/09/19 06:18:58;;;;;;;13.70;8.40;;;16.80;99.90;;;;;;5071435;28;20375;-52
2021/09/19 06:21:23;;;;;;;11.07;7.55;;;17.70;99.90;;;;;;5071822;28;20372;-54
2021/09/19 06:23:49;;;;;;;13.85;8.50;;;18.60;99.90;;;;;;5071377;28;20384;-53
2021/09/19 06:26:15;;;;;;;13.23;8.80;;;19.90;99.90;;;;;;5056701;28;20400;-53
2021/09/19 06:28:40;;;;;;;11.40;8.17;;;18.50;99.90;;;;;;5061018;28;21026;-54
2021/09/19 06:31:06;;;;;;;12.40;7.90;;;18.90;99.90;;;;;;5052609;28;20835;-53
2021/09/19 06:33:32;;;;;;;10.43;7.50;;;19.40;99.90;;;;;;5052153;28;20392;-53
2021/09/19 06:35:58;;;;;;;10.93;7.75;;;20.20;99.90;;;;;;5052687;28;20405;-54
2021/09/19 06:38:23;;;;;;;10.83;7.80;;;20.50;99.90;;;;;;5050557;28;20486;-55
2021/09/19 06:40:49;;;;;;;11.77;7.80;;;21.10;99.90;;;;;;5053566;28;20397;-54
2021/09/19 06:43:14;;;;;;;12.40;7.80;;;21.50;99.90;;;;;;5064337;28;20419;-54
2021/09/19 06:45:40;;;;;;;9.63;7.20;;;21.40;99.90;;;;;;5051197;28;20649;-54
2021/09/19 06:48:06;;;;;;;10.30;7.20;;;21.60;99.90;;;;;;5051517;28;20807;-54
2021/09/19 06:50:32;;;;;;;13.00;7.33;;;21.60;99.90;;;;;;5050454;28;20883;-54
2021/09/19 06:52:57;;;;;;;10.30;7.00;;;21.90;99.90;;;;;;5052099;28;20377;-54
2021/09/19 06:55:23;;;;;;;9.50;5.90;;;22.10;99.90;;;;;;5051245;28;20458;-55
2021/09/19 06:57:55;;;;;;;9.63;7.55;;;21.60;99.90;;;;;;5057989;28;20419;-55
2021/09/19 07:00:22;;;;;;;8.77;6.13;;;21.30;99.90;;;;;;5071416;28;20686;-56
2021/09/19 07:02:48;;;;;;;10.20;6.72;;;21.60;99.90;;;;;;5071697;28;20404;-55
2021/09/19 07:05:13;;;;;;;9.00;6.55;;;22.20;99.90;;;;;;5071168;28;20426;-55
2021/09/19 07:07:39;;;;;;;9.50;6.30;;;22.60;99.90;;;;;;5070865;28;20417;-55
2021/09/19 07:10:05;;;;;;;9.73;6.63;;;22.50;99.90;;;;;;5071151;28;20391;-53
2021/09/19 07:12:31;;;;;;;8.47;6.53;;;23.10;99.90;;;;;;5070396;28;20411;-54
2021/09/19 07:14:57;;;;;;;10.70;8.00;;;23.30;99.90;;;;;;5070219;28;20857;-55
2021/09/19 07:17:22;;;;;;;11.57;8.40;;;23.20;99.90;;;;;;5070719;28;20408;-56
2021/09/19 07:19:48;;;;;;;9.40;6.50;;;22.90;99.90;;;;;;5070029;28;20394;-56
2021/09/19 07:22:14;;;;;;;8.50;7.17;;;22.50;99.90;;;;;;5070311;28;20376;-55
2021/09/19 07:24:40;;;;;;;9.38;7.00;;;22.90;99.90;;;;;;5070081;28;20400;-55
2021/09/19 07:27:06;;;;;;;9.05;7.55;;;23.10;99.90;;;;;;5071027;28;20861;-55
2021/09/19 07:29:32;;;;;;;9.55;7.80;;;23.50;99.50;;;;;;5068868;28;20732;-55
2021/09/19 07:32:01;;;;;;;10.20;8.40;;;23.90;98.60;;;;;;5070700;28;20388;-56
2021/09/19 07:34:28;;;;;;;11.00;9.90;;;23.80;98.50;;;;;;5070220;28;20403;-54
2021/09/19 07:36:55;;;;;;;9.40;8.48;;;24.50;97.70;;;;;;5070164;28;20447;-54
2021/09/19 07:39:20;;;;;;;8.37;5.47;;;25.60;94.90;;;;;;5070638;28;20488;-55
2021/09/19 07:41:48;;;;;;;8.73;6.32;;;26.00;93.50;;;;;;5070002;28;20471;-55
2021/09/19 07:44:14;;;;;;;10.30;5.80;;;25.90;93.40;;;;;;5070668;28;20396;-55
2021/09/19 07:46:41;;;;;;;10.30;8.90;;;26.40;91.90;;;;;;5062053;28;20464;-55
2021/09/19 07:49:07;;;;;;;9.75;8.75;;;26.80;90.20;;;;;;5061187;28;20408;-56
2021/09/19 07:51:32;;;;;;;9.70;8.70;;;27.20;86.90;;;;;;5065567;28;20480;-56
2021/09/19 07:53:58;;;;;;;11.30;8.80;;;26.60;87.10;;;;;;5066129;28;20384;-55
2021/09/19 07:56:24;;;;;;;9.50;7.60;;;25.80;90.40;;;;;;5068063;28;20706;-56
2021/09/19 07:58:50;;;;;;;9.17;7.83;;;25.80;89.70;;;;;;5069697;28;20388;-56
2021/09/19 08:01:17;;;;;;;9.18;8.27;;;25.80;90.40;;;;;;5067217;28;20445;-55
2021/09/19 08:03:42;;;;;;;9.80;8.57;;;27.00;86.30;;;;;;5068462;28;20470;-56
2021/09/19 08:06:08;;;;;;;9.37;8.37;;;27.20;84.20;;;;;;5064148;28;20936;-56
2021/09/19 08:08:34;;;;;;;9.50;8.50;;;27.50;82.90;;;;;;5068516;28;20379;-55
2021/09/19 08:10:59;;;;;;;9.60;8.60;;;27.80;80.90;;;;;;5069818;28;20388;-56
2021/09/19 08:13:26;;;;;;;9.90;8.33;;;27.50;80.60;;;;;;5069063;28;20864;-56
2021/09/19 08:15:52;;;;;;;9.30;8.27;;;26.40;83.70;;;;;;5069170;28;20445;-56
2021/09/19 08:18:17;;;;;;;9.70;7.57;;;26.10;84.00;;;;;;5069292;28;20509;-55
2021/09/19 08:20:44;;;;;;;9.15;7.68;;;26.10;85.20;;;;;;5076924;28;20422;-55
2021/09/19 08:23:10;;;;;;;9.93;8.03;;;25.90;86.20;;;;;;5070307;28;20392;-55
2021/09/19 08:25:35;;;;;;;9.73;7.35;;;26.50;85.30;;;;;;5066717;28;20466;-56
2021/09/19 08:28:01;;;;;;;9.40;7.90;;;27.20;82.00;;;;;;5069728;28;20420;-56
2021/09/19 08:30:27;;;;;;;8.88;7.97;;;27.10;81.10;;;;;;5063681;28;20729;-57
2021/09/19 08:32:53;;;;;;;9.25;7.38;;;27.20;82.00;;;;;;5069099;28;20479;-55
2021/09/19 08:35:19;;;;;;;9.50;8.50;;;27.50;80.10;;;;;;5064740;28;20451;-53
2021/09/19 08:37:44;;;;;;;9.57;8.57;;;28.20;77.30;;;;;;5073151;28;20849;-54
2021/09/19 08:40:12;;;;;;;9.98;8.98;;;28.70;76.00;;;;;;5089030;28;20397;-56
2021/09/19 08:42:39;;;;;;;9.27;8.27;;;28.80;73.90;;;;;;5088294;28;20865;-54
2021/09/19 08:45:07;;;;;;;8.90;8.00;;;29.30;73.50;;;;;;5089174;28;20379;-53
2021/09/19 08:47:35;;;;;;;10.70;9.35;;;29.20;72.20;;;;;;5088654;28;20386;-54
2021/09/19 08:50:05;;;;;;;9.70;8.70;;;28.80;71.90;;;;;;5089726;28;20384;-54
2021/09/19 08:52:31;;;;;;;9.25;8.32;;;28.20;74.00;;;;;;5088610;28;20382;-54
2021/09/19 08:54:56;;;;;;;8.82;7.82;;;28.50;73.20;;;;;;5087793;28;20414;-55
2021/09/19 08:57:22;;;;;;;9.23;8.20;;;28.40;72.70;;;;;;5084850;28;20412;-54
2021/09/19 08:59:53;;;;;;;8.90;8.00;;;27.50;74.40;;;;;;5068196;28;20376;-54
2021/09/19 09:02:20;;;;;;;9.50;7.50;;;28.10;74.30;;;;;;5068913;28;20883;-54
2021/09/19 09:04:46;;;;;;;8.40;7.43;;;28.50;73.90;;;;;;5068741;28;20382;-53
2021/09/19 09:07:13;;;;;;;8.80;7.90;;;29.30;72.20;;;;;;5069364;28;20388;-53
2021/09/19 09:09:56;;;;;;;9.45;7.95;;;29.90;69.80;;;;;;5066793;28;20399;-54
2021/09/19 09:12:23;;;;;;;9.43;7.45;;;29.70;69.50;;;;;;5069449;28;20407;-56
2021/09/19 09:14:52;;;;;;;9.30;8.40;;;29.60;68.90;;;;;;5068494;28;20430;-52
2021/09/19 09:17:23;;;;;;;9.33;8.03;;;29.10;71.40;;;;;;5067621;28;20502;-53
2021/09/19 09:19:57;;;;;;;8.60;7.60;;;28.90;70.90;;;;;;5068142;28;20388;-53
2021/09/19 09:22:26;;;;;;;9.02;7.95;;;29.50;69.50;;;;;;5069086;28;20753;-53
2021/09/19 09:25:16;;;;;;;7.93;6.03;;;31.10;66.20;;;;;;5068458;28;20444;-51
2021/09/19 09:27:47;;;;;;;7.00;4.22;;;31.90;62.20;;;;;;5068206;28;20449;-54
2021/09/19 09:30:17;;;;;;;7.70;4.40;;;31.90;59.70;;;;;;5068056;28;20482;-53
2021/09/19 09:33:00;;;;;;;7.88;4.70;;;31.60;60.60;;;;;;5067340;28;21030;-53
2021/09/19 09:35:37;;;;;;;7.72;4.60;;;32.10;59.30;;;;;;5070226;28;20446;-59
2021/09/19 09:38:17;;;;;;;9.10;5.40;;;31.00;60.10;;;;;;5049304;28;20413;-53
2021/09/19 09:40:43;;;;;;;8.00;5.27;;;30.70;59.70;;;;;;5047640;28;20438;-53
2021/09/19 09:43:14;;;;;;;7.17;4.60;;;29.70;61.60;;;;;;5057809;28;20457;-53
2021/09/19 09:45:43;;;;;;;7.80;4.15;;;30.80;60.80;;;;;;5066924;28;20405;-54
2021/09/19 09:48:26;;;;;;;7.63;4.90;;;31.60;58.90;;;;;;5071025;28;20438;-53
2021/09/19 09:50:54;;;;;;;9.10;4.63;;;31.40;58.30;;;;;;5062260;28;20428;-54
2021/09/19 09:53:22;;;;;;;8.03;4.70;;;31.40;57.50;;;;;;5052096;28;20385;-56
2021/09/19 09:55:48;;;;;;;7.97;5.00;;;31.60;57.20;;;;;;5051284;28;21027;-56
2021/09/19 09:58:18;;;;;;;7.37;5.03;;;31.40;57.90;;;;;;5062731;28;20407;-54
2021/09/19 10:00:45;;;;;;;8.07;4.47;;;31.10;57.50;;;;;;5072186;28;20389;-53
2021/09/19 10:03:11;;;;;;;8.60;4.00;;;30.50;58.80;;;;;;5068429;28;20869;-53
2021/09/19 10:05:38;;;;;;;8.68;5.88;;;30.50;59.70;;;;;;5068805;28;20452;-52
2021/09/19 10:08:04;;;;;;;8.65;6.43;;;30.30;59.40;;;;;;5070723;28;20392;-55
2021/09/19 10:10:32;;;;;;;8.40;6.20;;;29.40;60.80;;;;;;5068659;28;20922;-54
2021/09/19 10:12:59;;;;;;;7.50;5.90;;;29.50;59.60;;;;;;5065468;28;20873;-56
2021/09/19 10:15:26;;;;;;;8.10;6.40;;;29.50;60.80;;;;;;5064916;28;20383;-57
2021/09/19 10:17:53;;;;;;;7.63;6.57;;;30.10;59.40;;;;;;5069765;28;20399;-53
2021/09/19 10:20:23;;;;;;;8.70;6.90;;;30.00;60.00;;;;;;5066306;28;20475;-53
2021/09/19 10:22:51;;;;;;;9.80;6.72;;;29.20;61.30;;;;;;5069576;28;21315;-54
2021/09/19 10:25:37;;;;;;;8.10;6.50;;;29.00;61.90;;;;;;5066411;28;20761;-54
2021/09/19 10:28:20;;;;;;;9.85;6.63;;;29.20;61.30;;;;;;5064847;28;20486;-54
2021/09/19 10:31:11;;;;;;;8.98;7.70;;;29.40;61.70;;;;;;5067101;28;20487;-55
2021/09/19 10:33:39;;;;;;;7.80;6.80;;;29.60;61.60;;;;;;5069181;28;20459;-54
2021/09/19 10:36:31;;;;;;;8.15;6.15;;;30.00;60.40;;;;;;5064528;28;20499;-52
2021/09/19 10:39:30;;;;;;;8.90;6.80;;;30.80;58.90;;;;;;5066121;28;20500;-52
2021/09/19 10:42:13;;;;;;;8.40;6.87;;;30.90;57.70;;;;;;5053568;28;20395;-54
2021/09/19 10:44:44;;;;;;;9.00;6.60;;;29.80;59.40;;;;;;5063878;28;20399;-53
2021/09/19 10:47:26;;;;;;;7.60;6.10;;;29.60;61.00;;;;;;5067162;28;20395;-53
2021/09/19 10:50:22;;;;;;;7.97;6.00;;;30.00;59.00;;;;;;5067756;28;20419;-54
2021/09/19 10:52:51;;;;;;;9.63;8.38;;;30.00;59.90;;;;;;5062486;28;20920;-53
2021/09/19 10:55:20;;;;;;;9.50;6.80;;;29.80;60.10;;;;;;5065544;28;20416;-54
2021/09/19 10:58:11;;;;;;;8.60;6.32;;;29.90;59.70;;;;;;5063827;28;20542;-53
2021/09/19 11:00:37;;;;;;;9.10;7.80;;;30.10;60.50;;;;;;5069572;28;20403;-54
2021/09/19 11:03:10;;;;;;;7.40;5.97;;;30.10;59.40;;;;;;5068074;28;20392;-53
2021/09/19 11:05:44;;;;;;;8.57;7.07;;;29.80;60.30;;;;;;5066053;28;20856;-53
2021/09/19 11:08:14;;;;;;;8.93;6.25;;;29.80;61.00;;;;;;5066341;28;20848;-53
2021/09/19 11:10:45;;;;;;;8.80;6.10;;;30.00;59.50;;;;;;5070852;28;20404;-53
2021/09/19 11:13:28;;;;;;;9.60;6.68;;;30.20;60.20;;;;;;5073592;28;20379;-53
2021/09/19 11:16:03;;;;;;;8.83;6.70;;;30.10;59.20;;;;;;5076226;28;20380;-53
2021/09/19 11:18:29;;;;;;;9.07;6.20;;;29.70;59.50;;;;;;5079576;28;20416;-59
2021/09/19 11:21:10;;;;;;;9.70;7.00;;;28.90;63.50;;;;;;5072241;28;20409;-56
2021/09/19 11:24:03;;;;;;;9.30;7.10;;;28.20;65.50;;;;;;5076580;28;20708;-53
2021/09/19 11:26:40;;;;;;;8.57;7.20;;;27.30;67.50;;;;;;5057104;28;20402;-58
2021/09/19 11:29:18;;;;;;;10.95;8.23;;;26.20;69.70;;;;;;5071059;28;20425;-52
2021/09/19 11:31:46;;;;;;;9.27;6.28;;;24.50;75.10;;;;;;5062748;28;20396;-52
2021/09/19 11:34:15;;;;;;;8.00;4.65;;;23.90;78.70;;;;;;5068455;28;20388;-52
2021/09/19 11:36:43;;;;;;;9.25;6.40;;;24.10;80.90;;;;;;5069542;28;20491;-52
2021/09/19 11:39:10;;;;;;;9.70;6.40;;;24.60;80.50;;;;;;5068827;28;20856;-52
2021/09/19 11:41:36;;;;;;;8.80;5.40;;;24.60;80.60;;;;;;5069062;28;20376;-52
2021/09/19 11:44:02;;;;;;;9.80;5.80;;;24.70;81.10;;;;;;5070246;28;20375;-54
2021/09/19 11:46:29;;;;;;;8.80;5.47;;;24.40;82.10;;;;;;5069395;28;21061;-58
2021/09/19 11:48:55;;;;;;;9.95;5.20;;;24.10;83.80;;;;;;5069797;28;20485;-52
2021/09/19 11:51:22;;;;;;;9.23;5.97;;;24.50;83.50;;;;;;5062435;28;20379;-53
2021/09/19 11:53:54;;;;;;;9.07;5.90;;;24.40;83.60;;;;;;5066936;28;20479;-52
2021/09/19 11:56:24;;;;;;;8.45;5.25;;;24.50;86.20;;;;;;5064904;28;20455;-53
2021/09/19 11:58:50;;;;;;;9.23;5.53;;;25.20;83.60;;;;;;5066602;28;20415;-53
2021/09/19 12:01:17;;;;;;;8.57;5.30;;;25.00;81.90;;;;;;5067599;28;20483;-53
2021/09/19 12:03:43;;;;;;;11.00;6.53;;;24.90;84.30;;;;;;5068903;28;20407;-52
2021/09/19 12:06:10;;;;;;;14.20;8.60;;;24.80;83.30;;;;;;5069541;28;20372;-52
2021/09/19 12:08:36;;;;;;;14.55;10.90;;;24.20;84.70;;;;;;5068826;28;20483;-53
2021/09/19 12:11:04;;;;;;;23.60;14.73;;;24.40;85.50;;;;;;5069512;28;20386;-52
2021/09/19 12:13:32;;;;;;;10.88;8.73;;;24.30;85.90;;;;;;5068763;28;20383;-57
2021/09/19 12:16:01;;;;;;;10.55;7.30;;;23.80;86.40;;;;;;5069537;28;20864;-53
2021/09/19 12:18:32;;;;;;;10.53;6.10;;;23.60;88.10;;;;;;5066406;28;20396;-57
2021/09/19 12:21:11;;;;;;;9.57;6.20;;;23.70;89.80;;;;;;5069395;28;20388;-52
2021/09/19 12:23:50;;;;;;;9.38;6.45;;;24.10;88.70;;;;;;5069266;28;20875;-53
2021/09/19 12:26:19;;;;;;;10.38;6.82;;;24.60;87.90;;;;;;5068272;28;20502;-53
2021/09/19 12:28:47;;;;;;;9.20;6.70;;;24.40;86.70;;;;;;5079374;28;20400;-52
2021/09/19 12:31:13;;;;;;;11.03;7.27;;;24.40;87.40;;;;;;5083530;28;20386;-52
2021/09/19 12:33:53;;;;;;;9.63;7.63;;;24.10;88.30;;;;;;5070630;28;20430;-52
2021/09/19 12:36:20;;;;;;;9.82;7.07;;;24.10;88.30;;;;;;5063785;28;20398;-52
2021/09/19 12:38:46;;;;;;;10.65;8.05;;;23.80;88.80;;;;;;5068410;28;20599;-52